Erik Jansson

Chefscout - IF Elfsborg
14 Okt 2027
Donnerstag
Verarbeitung

Persönlichkeit

Anpassungsfähigkeit (2) Ehrgeiz (9) Kontroverse (11) Loyalität (15) Druck (6) Professionalität (5) Fairness (1) Temperament (1)

Profil

Trainerstil Demokratisch
Lizenz Kontinentale A
Entschlossenheit 8
Menschenführung 12
Motivation 10
Disziplin 7
Arbeitszufriedenheit
99%
Ermüdung
0%
Rolle Chefscout
Gehalt 58.1K p/W
Vertrag 14.03.2030

Leistung

Verhalten Gut
Trainingseffektivität
34%
Spielerentwicklung
55%
Verletzungsprävention
35%
Taktische Umsetzung
20%

Letzte Ereignisse

Spieler begutachtet jetzt
Nahm an einer Scouting-Besprechung teil jetzt
Nahm an einer Scouting-Besprechung teil jetzt
Nahm an einer Scouting-Besprechung teil jetzt
Nahm an einer Scouting-Besprechung teil jetzt
Nahm an einer Scouting-Besprechung teil jetzt
Empfahl ein Transferziel jetzt
Empfahl ein Transferziel jetzt

Aktuell beobachtet

237
Spieler Verein Status Fähigkeit Vertrauen Beobachtet Zuletzt beobachtet Letzte Stimme
Olaniyi Saheed Kwara United Aktiv 98 / 105 40% 2 13.10.2027 -
Noel Sernelius IFK Norrkoping Aktiv 100 / 116 40% 1 13.10.2027 -
Josh Nichols Oldham Athletic Aktiv 114 / 117 40% 1 13.10.2027 -
Ivan Borges Defensores Aktiv 91 / 95 40% 1 11.10.2027 -
Martín Jiménez Audax Italiano Aktiv 104 / 98 40% 1 11.10.2027 -
Lucas Camejo River Plate Aktiv 89 / 84 40% 1 11.10.2027 -
Victor Hernandez Santa Fe Aktiv 112 / 125 40% 2 10.10.2027 -
Ignacio Fernández Boston River Aktiv 95 / 95 40% 1 10.10.2027 -
David Asayure Lokomotivi Aktiv 70 / 93 40% 1 10.10.2027 -
Issa Yusuf Shooting Stars Aktiv 86 / 90 40% 1 09.10.2027 -
Rasmus Nehrman Gefle Aktiv 85 / 84 40% 1 09.10.2027 -
Onyeuche Ujunwa Ikorodu City Aktiv 76 / 100 40% 2 08.10.2027 -
Isaías Silva Miramar Misiones Aktiv 81 / 84 40% 1 08.10.2027 -
Chibueze Oputa Rangers International Aktiv 87 / 86 40% 1 08.10.2027 -
Facundo Balatti Penarol Aktiv 108 / 116 40% 2 07.10.2027 -
Kevin Otiende Nairobi United Aktiv 65 / 65 40% 1 07.10.2027 -
Nahuel Leivas Montevideo City Torque Aktiv 96 / 111 40% 1 07.10.2027 -
Diego Vargas Universidad de Concepcion Aktiv 92 / 95 40% 2 06.10.2027 -
Yannick Geiger AIK Aktiv 95 / 110 40% 1 06.10.2027 -
Dato Chakvetadze Zugdidi Aktiv 91 / 85 40% 1 06.10.2027 -
Oscar Steinke Brånby Hammarby Aktiv 94 / 105 40% 1 08.09.2027 -
Yury Oyarzo Racing Aktiv 99 / 101 40% 1 08.09.2027 -
Ayden Heaven Portsmouth Aktiv 154 / 147 40% 1 06.09.2027 -
Toheeb Adebayo Shooting Stars Aktiv 72 / 85 40% 1 06.09.2027 -
Andrea Bertoncini Triestina Aktiv 91 / 96 40% 4 16.08.2027 -
Julián Bazán New York Red Bulls Aktiv 123 / 114 40% 2 16.08.2027 -
Montader Madjed Hammarby Bericht bereit 109 / 120 72% 1 09.08.2027 -
Ilyas Ansah Hull City Aktiv 132 / 130 40% 3 03.08.2027 -
Oladapo Afolayan Blackburn Rovers Verhandlung 133 / 133 40% 2 03.08.2027 -
Marc Bola Watford Aktiv 120 / 126 40% 1 03.08.2027 -
Mikey Johnston West Bromwich Albion Aktiv 131 / 131 40% 2 27.07.2027 -
Tyrese Campbell Sheffield United Aktiv 137 / 123 40% 1 27.07.2027 -
Patrik Wålemark Gaziantep Bericht bereit 124 / 125 67% 1 16.07.2027 -
Oleh Ocheretko FC Dallas Verhandlung 129 / 131 67% 1 16.07.2027 -
Johannes Eggestein Orlando City Bericht bereit 125 / 125 68% 1 16.07.2027 -
Seedy Jatta Austin FC Verhandlung 118 / 122 67% 1 16.07.2027 -
Ikenna Nkwazema FC Diarra Aktiv 83 / 75 40% 1 16.07.2027 -
Walter Molina Defensa y Justicia Aktiv 80 / 88 40% 1 16.07.2027 -
Alexei Rojas Fedorushchenko Barrow AFC Aktiv 124 / 119 40% 1 16.07.2027 -
Samuel Lucero Defensa y Justicia Aktiv 122 / 115 40% 2 14.07.2027 -
Milan Roganović Racing Genk Aktiv 119 / 119 40% 2 14.07.2027 -
George Hoddle Cambridge United Aktiv 85 / 89 40% 1 14.07.2027 -
Jan Bürger Northampton Town Aktiv 119 / 127 40% 3 13.07.2027 -
Rhys Chadwick AFC Wimbledon Aktiv 107 / 107 40% 3 13.07.2027 -
Simone Kosijer Triestina Aktiv 93 / 101 40% 2 11.07.2027 -
Joe Johnson Luton Town Aktiv 113 / 107 40% 1 11.07.2027 -
Jenson Jones Walsall Aktiv 102 / 98 40% 6 08.07.2027 -
Kazunari Kita Real Sociedad Aktiv 102 / 113 40% 3 08.07.2027 -
Adrian Skogmar Malmo FF Aktiv 109 / 122 40% 1 08.07.2027 -
Gonçalo Oliveira Benfica Aktiv 112 / 124 40% 4 06.07.2027 -
Charlie Gray Fleetwood Town Aktiv 92 / 103 40% 5 06.07.2027 -
Tiago Freitas Benfica Aktiv 116 / 125 40% 3 06.07.2027 -
Dayann Methalie Sunderland Aktiv 141 / 135 40% 3 05.07.2027 -
Bongani Jali Free State Stars Aktiv 89 / 99 40% 4 04.07.2027 -
Riley Owen Stevenage Aktiv 102 / 109 40% 6 04.07.2027 -
Sascha Britschgi AC Milan Aktiv 124 / 137 40% 6 01.07.2027 -
T-Jay Parfitt Cardiff City Aktiv 102 / 109 40% 3 30.06.2027 -
Joel Ezra Enyimba Aktiv 93 / 101 40% 1 30.06.2027 -
Rhys Walters Port Vale Aktiv 99 / 113 40% 4 27.06.2027 -
Edwin Asamoah Berekum Chelsea Aktiv 82 / 89 40% 1 27.06.2027 -
Olalekan Adeleke Remo Stars Aktiv 87 / 103 40% 1 26.06.2027 -
Chari Giwa US Bougouni Aktiv 72 / 79 40% 3 25.06.2027 -
Leandro Martins Benfica Aktiv 90 / 99 40% 1 22.06.2027 -
Josh Davidson Milton Keynes Dons Aktiv 97 / 104 40% 2 19.06.2027 -
Pedro Vian Seewald Dolomiti Bellunesi Aktiv 91 / 104 40% 2 19.06.2027 -
Daniel Idoko Ikorodu City Aktiv 80 / 101 40% 1 19.06.2027 -
Gady Beyuku Blackburn Rovers Aktiv 105 / 111 40% 1 16.06.2027 -
Josh Acheampong Everton Aktiv 141 / 142 40% 2 15.06.2027 -
Maldini Kacurri Grimsby Town Aktiv 100 / 106 40% 2 15.06.2027 -
Ivan Giraldo Valencia Aktiv 130 / 117 40% 7 14.06.2027 -
Salvador Blopá Sporting CP Aktiv 112 / 124 40% 3 14.06.2027 -
Moncef Zekri Sporting CP Aktiv 91 / 103 40% 1 09.06.2027 -
Lucas Bergvall Tottenham Aktiv 147 / 143 40% 3 08.06.2027 -
Ahmed Akinyele Remo Stars Aktiv 101 / 95 40% 2 08.06.2027 -
Mattia Puzone Siracusa Aktiv 89 / 106 40% 2 07.06.2027 -
Ahmed Zaki Masr El Makasa Aktiv 77 / 76 40% 1 07.06.2027 -
Lewis Miley Newcastle United Aktiv 155 / 141 40% 6 05.06.2027 -
Wessel Kuhn PSV Aktiv 97 / 117 40% 1 04.06.2027 -
Rivaldo Mkhize Black Aces Aktiv 83 / 97 40% 2 02.06.2027 -
Finn Jeltsch VfB Stuttgart Aktiv 136 / 150 40% 1 01.06.2027 -
Godwin Oham Warri Wolves Aktiv 82 / 88 40% 1 01.06.2027 -
Jobe Bellingham Borussia Dortmund Aktiv 146 / 133 40% 2 31.05.2027 -
Eliás Montiel Borussia Dortmund Aktiv 133 / 131 40% 2 26.05.2027 -
Tommaso Cecotti Carpi Aktiv 84 / 95 40% 3 21.05.2027 -
Mpho Khethang FC Diarra Aktiv 91 / 95 40% 2 17.05.2027 -
Caleb Yirenkyi Coventry City Aktiv 130 / 132 40% 4 17.05.2027 -
Surprise Manthosi Polokwane City Aktiv 86 / 93 40% 2 14.05.2027 -
Bence Dárdai VfL Wolfsburg Aktiv 136 / 140 40% 1 14.05.2027 -
Teboho Mokoena Black Aces Aktiv 85 / 85 40% 1 12.05.2027 -
Agustín De la Cuesta Racing Aktiv 120 / 113 40% 1 12.05.2027 -
Afriyie Sulemana WAFA Aktiv 78 / 88 40% 2 07.05.2027 -
Martim Cunha Porto Aktiv 100 / 118 40% 1 06.05.2027 -
Pietro Reggiori Pro Patria Aktiv 85 / 94 40% 1 06.05.2027 -
Ezra Mayers West Ham United Aktiv 110 / 124 40% 3 03.05.2027 -
Amine Boukamir Charleroi Aktiv 97 / 102 40% 2 01.05.2027 -
Germán Barbas Burgos Aktiv 93 / 108 40% 1 01.05.2027 -
Zane Albarus Shrewsbury Town Aktiv 104 / 93 40% 1 26.04.2027 -
Alessandro Zoboletti Sambenedettese Aktiv 84 / 88 40% 1 26.04.2027 -
Bernardo Lima Porto Aktiv 86 / 115 40% 1 22.04.2027 -
Taras Mykhavko Dynamo Kyiv Aktiv 129 / 119 40% 1 22.04.2027 -
Mahmoud Labib Heart of Lions Aktiv 77 / 80 40% 1 22.04.2027 -
Riyad Idrissi Cagliari Aktiv 115 / 125 40% 2 21.04.2027 -
David Ozoh Derby County Aktiv 116 / 120 40% 1 12.04.2027 -
Dmitry Pestryakov Krasnodar Aktiv 109 / 111 40% 1 10.04.2027 -
Lucas Assadi AIK Aktiv 123 / 127 69% 1 15.03.2027 Befürworten
Oscar Sjöstrand Malmo FF Aktiv 106 / 108 69% 1 08.03.2027 Befürworten
Brayan Gil Baltika Aktiv 136 / 118 40% 4 15.02.2027 -
Sampson Dweh Mallorca Aktiv 133 / 134 66% 1 01.02.2027 Befürworten
Emil Ceïde Juventude Aktiv 123 / 124 66% 1 01.02.2027 Befürworten
Ramiro Giannone Feirense Aktiv 77 / 88 40% 1 01.02.2027 -
Tyreece Campbell Charlton Athletic Aktiv 120 / 122 40% 2 31.01.2027 -
Vladislav Blănuţă Lechia Aktiv 123 / 112 40% 3 31.01.2027 -
Bienvenue Kanakimana Zbrojovka Brno Aktiv 111 / 123 40% 3 29.01.2027 -
Etiosa Ighodaro Kaizer Chiefs Aktiv 101 / 116 40% 6 29.01.2027 -
Aune Heggebø West Bromwich Albion Aktiv 120 / 133 40% 2 29.01.2027 -
Richard Koné Queens Park Rangers Aktiv 130 / 131 40% 3 28.01.2027 -
Yousef Salech Cardiff City Aktiv 136 / 119 40% 4 27.01.2027 -
João Félix Dinamo Moscow Aktiv 161 / 155 40% 3 26.01.2027 -
Cameron Archer Southampton Aktiv 132 / 135 40% 2 26.01.2027 -
Ar'jany Martha Rotherham United Aktiv 102 / 109 40% 1 26.01.2027 -
Othmane Maamma Watford Aktiv 112 / 124 40% 1 26.01.2027 -
Rhian Brewster Oleksandriya Aktiv 113 / 128 40% 4 24.01.2027 -
Isaiah Jones Luton Town Aktiv 135 / 118 40% 3 24.01.2027 -
Cian Ashford Cardiff City Aktiv 126 / 111 40% 1 24.01.2027 -
Max Johnston Derby County Aktiv 133 / 134 40% 1 23.01.2027 -
Rocco Vata Watford Aktiv 130 / 135 40% 3 22.01.2027 -
John McAtee Leyton Orient Aktiv 100 / 117 40% 2 20.01.2027 -
Patrick Agyemang Derby County Aktiv 123 / 124 40% 2 20.01.2027 -
Facundo Jáuregui Huracán Aktiv 96 / 104 40% 1 20.01.2027 -
Peter Valjent FK Senica Aktiv 122 / 112 40% 3 18.01.2027 -
Filip Kubala Banik Ostrava Aktiv 121 / 126 40% 1 18.01.2027 -
Jason Knight Bristol City Aktiv 131 / 126 40% 1 17.01.2027 -
Peter Federico Gornik Zabrze Aktiv 127 / 122 40% 1 17.01.2027 -
Darragh Burns Grimsby Town Aktiv 94 / 103 40% 1 17.01.2027 -
Armstrong Oko-Flex Levski Aktiv 121 / 120 40% 5 16.01.2027 -
Jakub Kadák Dukla Prague Aktiv 112 / 109 40% 1 16.01.2027 -
Artem Slesar Zorya Aktiv 119 / 123 40% 1 14.01.2027 -
Stephen Amankona Aduana Stars Aktiv 92 / 91 40% 1 14.01.2027 -
Matej Trusa DAC Dunajska Streda Aktiv 124 / 105 40% 3 13.01.2027 -
Jack McGlynn Stoke City Aktiv 137 / 139 40% 3 11.01.2027 -
Giorgi Kvernadze Frosinone Aktiv 132 / 122 40% 1 11.01.2027 -
Dale Taylor Blackpool Aktiv 114 / 121 40% 2 08.01.2027 -
Abu Kamara Portsmouth Aktiv 128 / 121 40% 2 07.01.2027 -
Youssoufa Moukoko FC Copenhagen Aktiv 123 / 133 40% 1 07.01.2027 -
John Mercado Sparta Prague Aktiv 121 / 128 40% 1 07.01.2027 Mehr Infos nötig
Tony Springett Cheltenham Town Aktiv 96 / 108 40% 1 07.01.2027 -
Luis Caicedo Spartak 1918 Aktiv 89 / 97 40% 1 04.01.2027 -
Petar Stanić Ludogorets Aktiv 127 / 131 40% 2 03.01.2027 -
Mathias Kvistgaarden Norwich City Aktiv 123 / 112 40% 2 03.01.2027 -
Bradley Zwane SuperSport United Aktiv 120 / 106 40% 1 03.01.2027 -
Max Fenger Helsingborg Aktiv 128 / 118 40% 5 01.01.2027 Beobachten
Welington Southampton Aktiv 122 / 128 40% 1 31.12.2026 -
Josh Coburn Millwall Aktiv 128 / 109 40% 1 31.12.2026 -
Lorent Tolaj Plymouth Argyle Aktiv 128 / 124 40% 1 31.12.2026 -
Jonathan Dellarossa Lokomotiv Plovdiv Aktiv 131 / 119 40% 3 29.12.2026 -
Sota Kitano Red Bull Salzburg Aktiv 114 / 124 40% 3 29.12.2026 Beobachten
Bongani Zungu Ajax Cape Town Aktiv 130 / 129 40% 3 28.12.2026 -
Tom Fellows Southampton Aktiv 120 / 130 40% 1 26.12.2026 -
Marezi Portsmouth Aktiv 114 / 133 40% 1 22.12.2026 -
Themba Williams Ajax Cape Town Aktiv 111 / 116 40% 1 20.12.2026 -
Ola Brynhildsen Rapid Wien Aktiv 131 / 122 40% 4 18.12.2026 -
Jacques Siwe Rubin Aktiv 118 / 109 40% 1 17.12.2026 -
Amar Memić Viktoria Plzen Aktiv 126 / 120 40% 1 17.12.2026 -
David Turnbull Cardiff City Aktiv 120 / 117 40% 1 17.12.2026 -
Alfie Doughty Millwall Aktiv 124 / 118 40% 2 16.12.2026 -
Finn Azaz Southampton Aktiv 132 / 128 40% 1 16.12.2026 -
Vitalii Dakhnovskyi Bukovyna Aktiv 101 / 104 40% 1 16.12.2026 -
Dylan Levitt Leyton Orient Aktiv 109 / 114 40% 1 14.12.2026 -
Jesus Ferreira Seattle Sounders Aktiv 120 / 132 40% 3 12.12.2026 -
Oliver Skipp Leicester City Aktiv 123 / 138 40% 1 11.12.2026 -
Adam Randell Bristol City Aktiv 140 / 119 40% 1 11.12.2026 -
Joe Gelhardt Hull City Aktiv 132 / 129 40% 2 09.12.2026 -
Samuele Vignato HNK Rijeka Aktiv 117 / 124 40% 3 08.12.2026 -
Ethan Galbraith Swansea City Aktiv 126 / 132 40% 1 07.12.2026 -
Max Bird Birmingham Aktiv 135 / 123 40% 1 07.12.2026 -
Bamba Dieng Crvena Zvezda Aktiv 135 / 132 40% 1 05.12.2026 -
Diego García Malmo FF Aktiv 121 / 116 40% 1 03.12.2026 -
Paulos Abraham Hammarby Aktiv 127 / 126 40% 2 02.12.2026 -
Talles Magno New York City Aktiv 137 / 137 40% 2 01.12.2026 -
Mandla Kekana Ajax Cape Town Aktiv 116 / 117 40% 1 01.12.2026 -
Will Swan Bradford City Aktiv 97 / 92 40% 3 29.11.2026 -
Petter Nosa Dahl Rapid Wien Aktiv 114 / 132 40% 1 28.11.2026 -
Yorbe Vertessen Red Bull Salzburg Aktiv 120 / 120 40% 2 26.11.2026 -
Lebogang Manyama SuperSport United Aktiv 100 / 110 40% 1 26.11.2026 -
Mayckel Lahdo Malmo FF Aktiv 134 / 135 40% 1 26.11.2026 -
Tobias Gulliksen Rapid Wien Aktiv 135 / 121 40% 1 25.11.2026 -
Obilor Okeke Hammarby Aktiv 118 / 119 40% 1 20.11.2026 -
Michele Šego Hajduk Split Aktiv 129 / 119 40% 1 19.11.2026 -
Isaac Matondo Koper Aktiv 106 / 112 40% 2 15.11.2026 -
Håkon Evjen Bodo/Glimt Aktiv 141 / 130 40% 1 15.11.2026 -
Martín Ojeda Orlando City Aktiv 134 / 144 40% 3 14.11.2026 -
Erick Dolly Black Aces Aktiv 100 / 110 40% 2 11.11.2026 -
Radek Šiler Podbrezova Aktiv 117 / 107 40% 2 11.11.2026 -
Dejan Joveljić Seattle Sounders Aktiv 135 / 128 40% 1 11.11.2026 -
Kévin Denkey FC Cincinnati Aktiv 137 / 120 40% 4 07.11.2026 -
Johan Hove AIK Aktiv 121 / 117 40% 1 07.11.2026 -
Jens Petter Hauge Bodo/Glimt Aktiv 135 / 139 40% 1 07.11.2026 -
Luis Palma Lech Aktiv 114 / 126 40% 1 05.11.2026 -
Bénie Traoré New York City Aktiv 113 / 125 40% 2 04.11.2026 -
Assad Al Hamlawi Universitatea Craiova Aktiv 110 / 125 40% 1 04.11.2026 -
Alexander Aravena Portland Timbers Aktiv 134 / 126 40% 1 02.11.2026 -
Evidence Makgopa Orlando Pirates Aktiv 106 / 104 40% 1 02.11.2026 -
Nazar Voloshyn Dynamo Kyiv Aktiv 126 / 124 40% 1 02.11.2026 Mehr Infos nötig
Elias Achouri San Diego Football Club Aktiv 140 / 128 40% 1 02.11.2026 -
Matías Contrera Hrvatski Dragovoljac Aktiv 94 / 97 40% 1 31.10.2026 -
Alberto Soro Dinamo Bucharest Aktiv 120 / 116 40% 1 30.10.2026 -
Kelvin Yeboah Minnesota United FC Aktiv 124 / 134 40% 2 29.10.2026 -
Adam Akimey Helsingborg Aktiv 93 / 108 40% 1 27.10.2026 -
Agustín Anello Philadelphia Union Aktiv 123 / 124 40% 1 26.10.2026 -
Tadeo Allende Inter Miami CF Aktiv 113 / 114 40% 2 25.10.2026 -
Duncan McGuire Houston Dynamo Aktiv 126 / 123 40% 1 23.10.2026 -
Emmanuel Gono AIK Aktiv 97 / 94 40% 1 23.10.2026 -
Germán Berterame Inter Miami CF Aktiv 131 / 126 40% 1 20.10.2026 -
Omar Faraj Halmstad Aktiv 114 / 106 40% 1 19.10.2026 -
Kristian Strømland Lien Djurgarden Aktiv 109 / 117 40% 1 18.10.2026 -
Conrad Wallem Djurgarden Aktiv 135 / 125 40% 1 18.10.2026 -
Oswin Appollis Orlando Pirates Aktiv 113 / 130 40% 1 18.10.2026 -
Ammar Ramadan DAC Dunajska Streda Aktiv 129 / 128 40% 1 18.10.2026 -
Mateusz Bogusz Houston Dynamo Aktiv 133 / 127 40% 1 14.10.2026 -
David Miculescu FCSB Aktiv 124 / 130 40% 1 12.10.2026 -
Patrik Mijić HNK Gorica Aktiv 101 / 104 40% 1 12.10.2026 -
Daniel Karlsbakk Sarpsborg 08 Aktiv 121 / 124 40% 1 10.10.2026 -
Wessam Abou Ali Columbus Crew Aktiv 133 / 124 40% 1 10.10.2026 -
Bo Hegland Djurgarden Aktiv 100 / 106 40% 1 10.10.2026 -
Erik Bodencer Central Norte Aktiv 118 / 100 40% 1 08.10.2026 -
Emmanuel Ekong Malmo FF Aktiv 111 / 111 40% 1 08.10.2026 -
Adrian Svanbäck BK Hacken Aktiv 126 / 122 40% 1 08.10.2026 -
Riqui Puig LA Galaxy Aktiv 124 / 132 40% 1 08.10.2026 -
Sead Hakšabanović Malmo FF Aktiv 127 / 115 40% 1 08.10.2026 -
Ayoub Jabbari FC Cincinnati Aktiv 112 / 103 40% 1 09.09.2026 -
Lucas Souto Defensa y Justicia Aktiv 116 / 127 40% 1 09.09.2026 -
David Da Costa Portland Timbers Aktiv 135 / 122 40% 1 09.09.2026 -
Eskil Edh AIK Aktiv 118 / 120 40% 1 07.09.2026 -
Ho-yeon Jung Minnesota United FC Aktiv 121 / 118 40% 1 07.09.2026 -
Aiden O'Neill New York City Aktiv 109 / 124 40% 1 03.08.2026 -
Morgan Guilavogui Real Salt Lake Aktiv 134 / 126 40% 1 03.08.2026 -
Youri Tielemans Manchester United Aktiv 167 / 160 40% 1 01.08.2026 -